createdAt,value
2023-06-13T00:00:20.755Z,100079.98
2023-06-13T00:02:49.731Z,100079.46
2023-06-13T00:05:22.210Z,100081.17
2023-06-13T00:07:52.500Z,100082.20
2023-06-13T00:10:21.416Z,100080.44
2023-06-13T00:12:53.130Z,100082.64
2023-06-13T00:15:22.088Z,100081.54
2023-06-13T00:17:51.007Z,100084.08
2023-06-13T00:20:20.143Z,100081.48
2023-06-13T00:22:50.128Z,100078.42
2023-06-13T00:25:19.095Z,100081.31
2023-06-13T00:27:50.570Z,100079.20
2023-06-13T00:30:19.488Z,100079.65
2023-06-13T00:32:49.509Z,100075.70
2023-06-13T00:35:18.855Z,100074.19
2023-06-13T00:37:48.371Z,100069.02
2023-06-13T00:40:17.663Z,100071.06
2023-06-13T00:42:46.789Z,100068.21
2023-06-13T00:45:21.778Z,100071.55
2023-06-13T00:47:53.089Z,100069.39
2023-06-13T00:50:23.114Z,100073.33
2023-06-13T00:52:52.668Z,100072.67
2023-06-13T00:55:23.064Z,100075.23
2023-06-13T00:57:54.536Z,100072.92
2023-06-13T01:00:27.828Z,100073.05
2023-06-13T01:02:58.745Z,100072.81
2023-06-13T01:05:29.454Z,100075.67
2023-06-13T01:08:00.018Z,100075.66
2023-06-13T01:10:29.561Z,100072.89
2023-06-13T01:13:16.109Z,100073.61
2023-06-13T01:15:49.255Z,100072.85
2023-06-13T01:18:26.193Z,100071.80
2023-06-13T01:20:57.542Z,100069.16
2023-06-13T01:23:38.043Z,100065.23
2023-06-13T01:26:15.043Z,100062.82
2023-06-13T01:28:45.785Z,100065.06
2023-06-13T01:31:16.263Z,100060.75
2023-06-13T01:33:47.756Z,100054.74
2023-06-13T01:36:16.821Z,100055.60
2023-06-13T01:38:45.839Z,100056.05
2023-06-13T01:41:15.487Z,100052.52
2023-06-13T01:43:44.470Z,100053.78
2023-06-13T01:46:21.411Z,100060.23
2023-06-13T01:48:57.234Z,100053.22
2023-06-13T01:51:31.331Z,100054.39
2023-06-13T01:54:04.441Z,100056.14
2023-06-13T01:56:34.272Z,100051.19
2023-06-13T01:59:05.968Z,100049.42
2023-06-13T02:01:37.289Z,100048.57
2023-06-13T02:04:06.718Z,100046.36
2023-06-13T02:06:56.342Z,100044.98
2023-06-13T02:09:25.284Z,100042.95
2023-06-13T02:11:54.214Z,100040.85
2023-06-13T02:14:24.239Z,100038.31
2023-06-13T02:16:53.553Z,100032.99
2023-06-13T02:19:22.904Z,100028.96
2023-06-13T02:21:52.735Z,100029.67
2023-06-13T02:24:21.738Z,100025.63
2023-06-13T02:26:52.019Z,100027.77
2023-06-13T02:29:21.932Z,100021.38
2023-06-13T02:31:51.181Z,100023.62
2023-06-13T02:34:20.728Z,100022.80
2023-06-13T02:36:49.632Z,100023.00
2023-06-13T02:39:19.324Z,100021.68
2023-06-13T02:41:48.481Z,100021.07
2023-06-13T02:44:17.535Z,100017.10
2023-06-13T02:46:46.622Z,100020.36
2023-06-13T02:49:16.193Z,100025.49
2023-06-13T02:51:45.200Z,100024.27
2023-06-13T02:54:14.221Z,100024.59
2023-06-13T02:56:43.186Z,100032.23
2023-06-13T02:59:12.261Z,100032.48
2023-06-13T03:01:41.434Z,100034.45
2023-06-13T03:04:12.534Z,100031.42
2023-06-13T03:06:42.321Z,100030.48
2023-06-13T03:09:12.225Z,100029.29
2023-06-13T03:11:41.609Z,100031.00
2023-06-13T03:14:10.715Z,100032.23
2023-06-13T03:16:40.413Z,100028.95
2023-06-13T03:19:09.492Z,100029.10
2023-06-13T03:21:38.497Z,100029.58
2023-06-13T03:24:08.634Z,100033.48
2023-06-13T03:26:39.543Z,100034.30
2023-06-13T03:29:12.654Z,100034.10
2023-06-13T03:31:42.298Z,100032.36
2023-06-13T03:34:11.568Z,100034.94
2023-06-13T03:36:40.926Z,100038.86
2023-06-13T03:39:10.635Z,100039.95
2023-06-13T03:41:39.697Z,100038.66
2023-06-13T03:44:08.985Z,100038.52
2023-06-13T03:46:38.148Z,100041.94
2023-06-13T03:49:07.349Z,100043.92
2023-06-13T03:51:36.970Z,100048.24
2023-06-13T03:54:06.060Z,100046.98
2023-06-13T03:56:35.091Z,100049.87
2023-06-13T03:59:04.248Z,100050.29
2023-06-13T04:01:33.284Z,100051.55
2023-06-13T04:04:02.553Z,100050.77
2023-06-13T04:06:31.757Z,100057.77
2023-06-13T04:09:00.840Z,100059.94
2023-06-13T04:11:33.463Z,100058.35
2023-06-13T04:14:03.135Z,100063.46
2023-06-13T04:16:32.025Z,100065.65
2023-06-13T04:19:04.296Z,100066.48
2023-06-13T04:21:33.226Z,100071.73
2023-06-13T04:24:02.307Z,100075.45
2023-06-13T04:26:32.192Z,100077.36
2023-06-13T04:29:02.844Z,100081.02
2023-06-13T04:31:48.449Z,100081.58
2023-06-13T04:34:19.388Z,100087.13
2023-06-13T04:36:48.731Z,100090.92
2023-06-13T04:39:18.468Z,100093.39
2023-06-13T04:41:50.027Z,100094.97
2023-06-13T04:44:19.129Z,100096.17
2023-06-13T04:46:51.370Z,100098.50
2023-06-13T04:49:20.378Z,100096.18
2023-06-13T04:51:50.540Z,100094.67
2023-06-13T04:54:20.452Z,100099.13
2023-06-13T04:56:50.358Z,100101.02
2023-06-13T04:59:21.281Z,100105.73
2023-06-13T05:01:50.708Z,100107.33
2023-06-13T05:04:20.485Z,100113.78
2023-06-13T05:06:49.333Z,100115.20
2023-06-13T05:09:18.913Z,100111.09
2023-06-13T05:11:48.077Z,100116.40
2023-06-13T05:14:17.238Z,100117.93
2023-06-13T05:16:48.632Z,100119.06
2023-06-13T05:19:18.734Z,100125.80
2023-06-13T05:21:48.521Z,100129.89
2023-06-13T05:24:18.308Z,100129.83
2023-06-13T05:26:47.598Z,100132.44
2023-06-13T05:29:16.598Z,100136.62
2023-06-13T05:31:47.194Z,100135.95
2023-06-13T05:34:32.671Z,100138.46
2023-06-13T05:37:03.317Z,100134.14
2023-06-13T05:39:32.283Z,100134.89
2023-06-13T05:42:01.355Z,100137.08
2023-06-13T05:44:30.706Z,100138.23
2023-06-13T05:46:59.615Z,100138.17
2023-06-13T05:49:28.554Z,100139.17
2023-06-13T05:51:58.300Z,100130.74
2023-06-13T05:54:27.200Z,100133.63
2023-06-13T05:56:56.310Z,100129.20
2023-06-13T05:59:25.342Z,100133.21
2023-06-13T06:01:54.675Z,100128.54
2023-06-13T06:04:24.249Z,100132.49
2023-06-13T06:06:54.078Z,100134.11
2023-06-13T06:09:24.707Z,100133.95
2023-06-13T06:11:54.845Z,100135.37
2023-06-13T06:14:24.035Z,100133.31
2023-06-13T06:16:53.059Z,100129.35
2023-06-13T06:19:22.218Z,100130.44
2023-06-13T06:21:51.285Z,100133.74
2023-06-13T06:24:20.155Z,100132.14
2023-06-13T06:26:49.344Z,100133.67
2023-06-13T06:29:18.265Z,100137.41
2023-06-13T06:31:47.148Z,100133.36
2023-06-13T06:34:16.203Z,100130.68
2023-06-13T06:36:45.284Z,100125.66
2023-06-13T06:39:14.589Z,100127.97
2023-06-13T06:41:43.488Z,100131.95
2023-06-13T06:44:12.362Z,100129.78
2023-06-13T06:46:41.459Z,100134.59
2023-06-13T06:49:10.590Z,100133.08
2023-06-13T06:51:39.695Z,100132.51
2023-06-13T06:54:08.661Z,100127.03
2023-06-13T06:56:37.926Z,100128.42
2023-06-13T06:59:06.873Z,100128.06
2023-06-13T07:01:36.561Z,100133.89
2023-06-13T07:04:05.969Z,100135.78
2023-06-13T07:06:35.099Z,100132.02
2023-06-13T07:09:04.156Z,100132.80
2023-06-13T07:11:33.060Z,100135.52
2023-06-13T07:14:01.923Z,100138.45
2023-06-13T07:16:31.000Z,100134.98
2023-06-13T07:19:00.039Z,100131.95
2023-06-13T07:21:30.226Z,100127.45
2023-06-13T07:24:07.743Z,100128.27
2023-06-13T07:26:37.673Z,100126.59
2023-06-13T07:29:06.630Z,100125.04
2023-06-13T07:31:35.656Z,100131.83
2023-06-13T07:34:06.500Z,100132.30
2023-06-13T07:36:38.937Z,100126.94
2023-06-13T07:39:14.385Z,100123.08
2023-06-13T07:41:45.920Z,100118.64
2023-06-13T07:44:14.980Z,100112.98
2023-06-13T07:46:44.305Z,100108.81
2023-06-13T07:49:13.250Z,100109.48
2023-06-13T07:51:42.364Z,100108.07
2023-06-13T07:54:11.286Z,100104.46
2023-06-13T07:56:40.398Z,100102.69
2023-06-13T07:59:09.316Z,100097.10
2023-06-13T08:01:38.334Z,100095.59
2023-06-13T08:04:07.504Z,100093.77
2023-06-13T08:06:36.632Z,100092.50
2023-06-13T08:09:10.203Z,100089.75
2023-06-13T08:11:39.695Z,100087.65
2023-06-13T08:14:09.796Z,100089.72
2023-06-13T08:16:39.332Z,100091.16
2023-06-13T08:19:08.339Z,100085.89
2023-06-13T08:21:37.281Z,100090.31
2023-06-13T08:24:06.846Z,100087.58
2023-06-13T08:26:35.792Z,100081.69
2023-06-13T08:29:04.800Z,100075.13
2023-06-13T08:34:11.201Z,100073.43
2023-06-13T08:36:42.098Z,100073.36
2023-06-13T08:39:11.126Z,100073.13
2023-06-13T08:41:40.667Z,100075.15
2023-06-13T08:44:09.693Z,100070.98
2023-06-13T08:46:39.010Z,100064.80
2023-06-13T08:49:08.044Z,100079.27
2023-06-13T08:51:38.141Z,100069.02
2023-06-13T08:54:09.073Z,100069.91
2023-06-13T08:56:44.899Z,100065.36
2023-06-13T08:59:16.934Z,100060.38
2023-06-13T09:01:46.415Z,100054.46
2023-06-13T09:04:18.332Z,100058.22
2023-06-13T09:06:47.303Z,100058.02
2023-06-13T09:09:18.565Z,100055.52
2023-06-13T09:11:51.809Z,100056.10
2023-06-13T09:14:21.520Z,100052.02
2023-06-13T09:16:52.521Z,100042.75
2023-06-13T09:19:21.742Z,100043.02
2023-06-13T09:21:51.503Z,100042.21
2023-06-13T09:24:21.303Z,100041.81
2023-06-13T09:26:50.682Z,100038.26
2023-06-13T09:29:27.218Z,100040.23
2023-06-13T09:32:12.387Z,100041.52
2023-06-13T09:34:43.035Z,100038.52
2023-06-13T09:37:13.151Z,100042.63
2023-06-13T09:39:50.952Z,100036.42
2023-06-13T09:42:25.179Z,100038.23
2023-06-13T09:44:58.887Z,100034.07
2023-06-13T09:47:28.953Z,100026.91
2023-06-13T09:49:59.136Z,100025.45
2023-06-13T09:52:29.867Z,100025.65
2023-06-13T09:54:59.093Z,100024.34
2023-06-13T09:57:41.602Z,100019.68
2023-06-13T10:00:18.215Z,100014.06
2023-06-13T10:02:48.553Z,100012.07
2023-06-13T10:05:17.616Z,100013.61
2023-06-13T10:07:46.938Z,100012.85
2023-06-13T10:10:16.901Z,100013.72
2023-06-13T10:12:50.118Z,100008.33
2023-06-13T10:15:22.011Z,100006.24
2023-06-13T10:17:52.360Z,100003.45
2023-06-13T10:20:21.858Z,100003.79
2023-06-13T10:22:50.939Z,99992.30
2023-06-13T10:25:20.874Z,99994.63
2023-06-13T10:27:52.672Z,99994.23
2023-06-13T10:30:34.818Z,99995.70
2023-06-13T10:33:30.391Z,99993.42
2023-06-13T10:36:12.751Z,99988.23
2023-06-13T10:39:01.085Z,99989.65
2023-06-13T10:41:40.415Z,99985.36
2023-06-13T10:44:13.308Z,99980.44
2023-06-13T10:46:42.660Z,99975.33
2023-06-13T10:49:17.081Z,99974.60
2023-06-13T10:51:46.669Z,99974.78
2023-06-13T10:54:16.168Z,99974.02
2023-06-13T10:56:46.172Z,99980.09
2023-06-13T10:59:16.629Z,99978.05
2023-06-13T11:01:46.156Z,99979.97
2023-06-13T11:04:16.197Z,99973.67
2023-06-13T11:06:45.906Z,99966.23
2023-06-13T11:09:19.413Z,99962.01
2023-06-13T11:11:49.924Z,99960.85
2023-06-13T11:14:21.237Z,99961.48
2023-06-13T11:16:50.123Z,99963.06
2023-06-13T11:19:20.503Z,99962.89
2023-06-13T11:21:51.823Z,99965.78
2023-06-13T11:24:21.189Z,99965.27
2023-06-13T11:26:50.166Z,99963.68
2023-06-13T11:29:19.416Z,99958.98
2023-06-13T11:31:52.659Z,99949.38
2023-06-13T11:34:25.683Z,99947.60
2023-06-13T11:36:57.345Z,99945.85
2023-06-13T11:39:28.574Z,99939.39
2023-06-13T11:41:58.342Z,99937.11
2023-06-13T11:44:27.339Z,99934.25
2023-06-13T11:46:56.804Z,99936.30
2023-06-13T11:49:27.624Z,99936.95
2023-06-13T11:51:56.949Z,99936.37
2023-06-13T11:54:31.605Z,99935.08
2023-06-13T11:57:00.595Z,99934.94
2023-06-13T11:59:29.592Z,99928.69
2023-06-13T12:01:58.727Z,99932.16
2023-06-13T12:04:28.394Z,99923.60
2023-06-13T12:06:58.989Z,99924.11
2023-06-13T12:09:29.560Z,99920.27
2023-06-13T12:11:58.582Z,99918.20
2023-06-13T12:14:30.081Z,99912.11
2023-06-13T12:17:00.597Z,99907.33
2023-06-13T12:19:29.767Z,99908.78
2023-06-13T12:22:01.175Z,99908.42
2023-06-13T12:24:30.192Z,99903.30
2023-06-13T12:26:59.239Z,99904.41
2023-06-13T12:29:29.046Z,99905.00
2023-06-13T12:32:04.279Z,99902.65
2023-06-13T12:34:36.052Z,99902.55
2023-06-13T12:37:06.109Z,99906.42
2023-06-13T12:39:36.307Z,99894.66
2023-06-13T12:42:07.436Z,99892.95
2023-06-13T12:44:37.376Z,99883.08
2023-06-13T12:47:07.541Z,99881.52
2023-06-13T12:49:41.132Z,99882.11
2023-06-13T12:52:17.730Z,99876.11
2023-06-13T12:54:46.585Z,99870.73
2023-06-13T12:57:18.892Z,99871.23
2023-06-13T12:59:53.675Z,99871.27
2023-06-13T13:02:24.380Z,99870.88
2023-06-13T13:05:01.059Z,99867.97
2023-06-13T13:07:31.173Z,99871.31
2023-06-13T13:10:00.894Z,99864.80
2023-06-13T13:12:30.354Z,99858.71
2023-06-13T13:15:01.688Z,99855.52
2023-06-13T13:17:31.105Z,99851.04
2023-06-13T13:19:59.965Z,99845.27
2023-06-13T13:22:28.948Z,99844.21
2023-06-13T13:24:57.779Z,99842.27
2023-06-13T13:27:27.107Z,99839.93
2023-06-13T13:29:58.269Z,99843.41
2023-06-13T13:32:29.081Z,99841.71
2023-06-13T13:34:58.097Z,99837.83
2023-06-13T13:37:26.990Z,99834.44
2023-06-13T13:39:55.927Z,99827.80
2023-06-13T13:42:26.453Z,99822.04
2023-06-13T13:44:55.672Z,99815.75
2023-06-13T13:47:24.741Z,99815.20
2023-06-13T13:49:55.004Z,99818.05
2023-06-13T13:52:24.367Z,99815.06
2023-06-13T13:54:53.466Z,99813.90
2023-06-13T13:57:22.429Z,99813.63
2023-06-13T13:59:51.688Z,99809.14
2023-06-13T14:02:20.655Z,99811.05
2023-06-13T14:04:49.477Z,99809.53
2023-06-13T14:07:18.310Z,99803.97
2023-06-13T14:09:47.119Z,99798.07
2023-06-13T14:12:16.210Z,99793.56
2023-06-13T14:14:45.073Z,99795.59
2023-06-13T14:17:14.425Z,99789.17
2023-06-13T14:19:43.924Z,99792.13
2023-06-13T14:22:12.865Z,99788.79
2023-06-13T14:24:41.797Z,99784.59
2023-06-13T14:27:11.335Z,99778.99
2023-06-13T14:29:40.394Z,99777.09
2023-06-13T14:32:10.243Z,99776.38
2023-06-13T14:34:39.540Z,99775.52
2023-06-13T14:37:08.512Z,99775.19
2023-06-13T14:39:37.517Z,99777.36
2023-06-13T14:42:06.870Z,99774.64
2023-06-13T14:44:35.754Z,99774.58
2023-06-13T14:47:05.804Z,99772.27
2023-06-13T14:49:34.781Z,99769.45
2023-06-13T14:52:04.435Z,99770.13
2023-06-13T14:54:33.354Z,99761.77
2023-06-13T14:57:02.969Z,99759.79
2023-06-13T14:59:33.119Z,99756.89
2023-06-13T15:02:02.079Z,99751.19
2023-06-13T15:04:30.955Z,99750.44
2023-06-13T15:06:59.916Z,99747.42
2023-06-13T15:09:30.114Z,99746.63
2023-06-13T15:12:00.406Z,99745.68
2023-06-13T15:14:29.429Z,99744.59
2023-06-13T15:16:58.365Z,99742.43
2023-06-13T15:19:27.411Z,99739.89
2023-06-13T15:21:56.440Z,99735.70
2023-06-13T15:24:26.600Z,99732.42
2023-06-13T15:26:55.705Z,99736.80
2023-06-13T15:29:24.588Z,99741.05
2023-06-13T15:31:54.677Z,99741.98
2023-06-13T15:34:25.929Z,99744.20
2023-06-13T15:36:55.117Z,99741.14
2023-06-13T15:39:25.418Z,99739.40
2023-06-13T15:41:54.936Z,99740.67
2023-06-13T15:44:24.037Z,99737.26
2023-06-13T15:46:53.518Z,99734.00
2023-06-13T15:49:23.971Z,99733.16
2023-06-13T15:51:52.934Z,99733.48
2023-06-13T15:54:21.880Z,99733.88
2023-06-13T15:56:50.874Z,99731.49
2023-06-13T15:59:19.946Z,99730.06
2023-06-13T16:01:48.815Z,99728.87
2023-06-13T16:04:18.141Z,99730.58
2023-06-13T16:06:47.309Z,99739.52
2023-06-13T16:09:16.486Z,99737.27
2023-06-13T16:11:47.352Z,99736.61
2023-06-13T16:14:16.476Z,99727.48
2023-06-13T16:16:46.769Z,99728.13
2023-06-13T16:19:16.937Z,99725.02
2023-06-13T16:21:46.197Z,99727.23
2023-06-13T16:24:15.198Z,99727.91
2023-06-13T16:26:44.134Z,99727.56
2023-06-13T16:29:13.044Z,99729.73
2023-06-13T16:31:43.759Z,99729.09
2023-06-13T16:34:13.595Z,99730.31
2023-06-13T16:36:43.281Z,99724.80
2023-06-13T16:39:12.366Z,99726.13
2023-06-13T16:41:41.235Z,99728.89
2023-06-13T16:44:10.176Z,99731.44
2023-06-13T16:46:39.571Z,99730.67
2023-06-13T16:49:08.482Z,99734.92
2023-06-13T16:51:37.556Z,99738.96
2023-06-13T16:54:06.525Z,99744.81
2023-06-13T16:56:35.455Z,99743.19
2023-06-13T16:59:04.297Z,99736.19
2023-06-13T17:01:33.588Z,99736.32
2023-06-13T17:04:02.734Z,99737.33
2023-06-13T17:06:31.695Z,99735.40
2023-06-13T17:09:01.579Z,99730.06
2023-06-13T17:11:30.526Z,99730.49
2023-06-13T17:14:03.047Z,99733.61
2023-06-13T17:16:34.262Z,99730.41
2023-06-13T17:19:03.940Z,99730.05
2023-06-13T17:21:33.891Z,99726.89
2023-06-13T17:24:04.787Z,99728.45
2023-06-13T17:26:35.276Z,99725.65
2023-06-13T17:29:04.120Z,99728.95
2023-06-13T17:31:33.248Z,99730.20
2023-06-13T17:34:02.218Z,99730.18
2023-06-13T17:36:31.313Z,99737.61
2023-06-13T17:39:00.262Z,99740.58
2023-06-13T17:41:29.263Z,99743.35
2023-06-13T17:43:58.468Z,99742.14
2023-06-13T17:46:27.997Z,99748.10
2023-06-13T17:48:56.984Z,99751.81
2023-06-13T17:51:26.371Z,99749.86
2023-06-13T17:53:55.681Z,99745.70
2023-06-13T17:56:24.703Z,99749.55
2023-06-13T17:58:53.756Z,99747.10
2023-06-13T18:01:22.825Z,99748.73
2023-06-13T18:03:52.060Z,99747.55
2023-06-13T18:06:22.676Z,99747.17
2023-06-13T18:08:51.744Z,99747.48
2023-06-13T18:11:20.653Z,99745.86
2023-06-13T18:13:49.535Z,99749.52
2023-06-13T18:16:18.483Z,99750.35
2023-06-13T18:18:47.352Z,99748.02
2023-06-13T18:21:16.354Z,99750.84
2023-06-13T18:23:45.431Z,99753.46
2023-06-13T18:26:14.390Z,99752.81
2023-06-13T18:28:43.321Z,99757.38
2023-06-13T18:31:12.365Z,99755.60
2023-06-13T18:33:41.597Z,99754.15
2023-06-13T18:36:10.523Z,99754.19
2023-06-13T18:38:39.529Z,99750.68
2023-06-13T18:41:08.554Z,99755.08
2023-06-13T18:43:37.577Z,99757.73
2023-06-13T18:46:06.589Z,99755.26
2023-06-13T18:48:35.665Z,99756.39
2023-06-13T18:51:04.999Z,99759.99
2023-06-13T18:53:33.894Z,99755.38
2023-06-13T18:56:02.846Z,99754.41
2023-06-13T18:58:31.932Z,99755.20
2023-06-13T19:01:01.039Z,99760.49
2023-06-13T19:03:30.068Z,99765.13
2023-06-13T19:05:59.314Z,99767.06
2023-06-13T19:08:28.443Z,99772.83
2023-06-13T19:10:57.546Z,99777.73
2023-06-13T19:13:26.560Z,99782.09
2023-06-13T19:15:55.837Z,99779.56
2023-06-13T19:18:25.857Z,99785.54
2023-06-13T19:20:54.846Z,99785.31
2023-06-13T19:23:23.729Z,99789.14
2023-06-13T19:25:55.040Z,99792.92
2023-06-13T19:28:24.204Z,99795.84
2023-06-13T19:30:53.311Z,99797.46
2023-06-13T19:33:22.393Z,99802.82
2023-06-13T19:35:51.380Z,99809.44
2023-06-13T19:38:20.613Z,99809.43
2023-06-13T19:40:49.863Z,99811.38
2023-06-13T19:43:18.850Z,99819.76
2023-06-13T19:45:48.827Z,99824.73
2023-06-13T19:48:18.125Z,99830.29
2023-06-13T19:50:49.664Z,99834.11
2023-06-13T19:53:19.669Z,99840.82
2023-06-13T19:55:49.403Z,99839.39
2023-06-13T19:58:20.394Z,99838.89
2023-06-13T20:00:49.523Z,99845.02
2023-06-13T20:03:19.423Z,99851.69
2023-06-13T20:05:48.591Z,99856.50
2023-06-13T20:08:17.679Z,99861.46
2023-06-13T20:10:47.752Z,99861.45
2023-06-13T20:13:17.353Z,99861.25
2023-06-13T20:15:46.629Z,99859.95
2023-06-13T20:18:16.216Z,99861.86
2023-06-13T20:20:46.137Z,99864.77
2023-06-13T20:23:15.266Z,99868.40
2023-06-13T20:25:44.412Z,99868.64
2023-06-13T20:28:15.642Z,99870.85
2023-06-13T20:30:44.690Z,99873.88
2023-06-13T20:33:13.886Z,99875.08
2023-06-13T20:35:42.924Z,99875.58
2023-06-13T20:38:12.048Z,99877.83
2023-06-13T20:40:41.287Z,99881.64
2023-06-13T20:43:12.073Z,99879.42
2023-06-13T20:45:41.448Z,99884.38
2023-06-13T20:48:10.866Z,99885.20
2023-06-13T20:50:40.552Z,99889.51
2023-06-13T20:53:09.619Z,99893.18
2023-06-13T20:55:38.520Z,99895.33
2023-06-13T20:58:08.110Z,99895.94
2023-06-13T21:00:37.884Z,99899.45
2023-06-13T21:03:07.332Z,99898.19
2023-06-13T21:05:36.653Z,99898.33
2023-06-13T21:08:06.998Z,99897.41
2023-06-13T21:10:35.926Z,99899.67
2023-06-13T21:13:05.015Z,99903.09
2023-06-13T21:15:34.598Z,99902.80
2023-06-13T21:18:04.554Z,99908.51
2023-06-13T21:20:33.687Z,99909.22
2023-06-13T21:23:02.708Z,99907.55
2023-06-13T21:25:31.786Z,99911.22
2023-06-13T21:28:00.873Z,99916.73
2023-06-13T21:30:29.813Z,99916.11
2023-06-13T21:32:58.898Z,99919.11
2023-06-13T21:35:28.045Z,99920.16
2023-06-13T21:37:57.869Z,99921.19
2023-06-13T21:40:26.854Z,99921.13
2023-06-13T21:42:56.915Z,99921.73
2023-06-13T21:45:32.281Z,99918.61
2023-06-13T21:48:02.785Z,99918.39
2023-06-13T21:50:32.760Z,99917.01
2023-06-13T21:53:01.729Z,99914.95
2023-06-13T21:55:30.774Z,99914.58
2023-06-13T21:57:59.657Z,99913.68
2023-06-13T22:00:28.674Z,99915.19
2023-06-13T22:02:57.672Z,99920.17
2023-06-13T22:05:27.590Z,99920.98
2023-06-13T22:07:58.493Z,99919.52
2023-06-13T22:10:28.643Z,99921.65
2023-06-13T22:12:57.932Z,99924.25
2023-06-13T22:15:26.791Z,99919.95
2023-06-13T22:17:58.128Z,99920.16
2023-06-13T22:20:27.066Z,99920.98
2023-06-13T22:22:59.010Z,99923.91
2023-06-13T22:25:28.532Z,99921.63
2023-06-13T22:27:57.953Z,99919.83
2023-06-13T22:30:26.956Z,99922.89
2023-06-13T22:32:56.395Z,99923.02
2023-06-13T22:35:25.805Z,99925.12
2023-06-13T22:37:54.797Z,99926.35
2023-06-13T22:40:23.742Z,99924.45
2023-06-13T22:42:52.732Z,99926.10
2023-06-13T22:45:23.178Z,99927.39
2023-06-13T22:47:53.572Z,99926.76
2023-06-13T22:50:22.831Z,99927.78
2023-06-13T22:52:53.968Z,99927.52
2023-06-13T22:55:23.878Z,99932.83
2023-06-13T22:57:52.844Z,99935.21
2023-06-13T23:00:21.954Z,99939.63
2023-06-13T23:02:52.582Z,99939.58
2023-06-13T23:05:21.659Z,99939.16
2023-06-13T23:07:50.662Z,99939.09
2023-06-13T23:10:19.655Z,99932.36
2023-06-13T23:12:48.575Z,99930.92
2023-06-13T23:15:17.577Z,99934.04
2023-06-13T23:17:46.630Z,99930.70
2023-06-13T23:20:17.060Z,99939.24
2023-06-13T23:22:47.617Z,99933.45
2023-06-13T23:25:22.321Z,99936.14
2023-06-13T23:27:51.402Z,99933.70
2023-06-13T23:30:21.037Z,99931.98
2023-06-13T23:32:52.448Z,99931.66
2023-06-13T23:35:23.745Z,99926.10
2023-06-13T23:37:52.773Z,99924.08
2023-06-13T23:40:21.792Z,99925.06
2023-06-13T23:42:51.097Z,99925.18
2023-06-13T23:45:20.119Z,99926.15
2023-06-13T23:47:49.100Z,99928.29
2023-06-13T23:50:18.926Z,99924.63
2023-06-13T23:52:47.782Z,99928.63
2023-06-13T23:55:17.419Z,99929.75
2023-06-13T23:57:46.346Z,99929.83
